createdAt,value
2023-08-13T00:01:04.159Z,8.40
2023-08-13T00:03:30.975Z,6.15
2023-08-13T00:05:57.852Z,9.52
2023-08-13T00:08:24.606Z,11.40
2023-08-13T00:10:51.217Z,13.55
2023-08-13T00:13:17.921Z,14.48
2023-08-13T00:15:44.462Z,12.63
2023-08-13T00:18:11.763Z,9.15
2023-08-13T00:20:38.657Z,13.77
2023-08-13T00:23:05.389Z,9.75
2023-08-13T00:25:32.025Z,7.70
2023-08-13T00:28:01.127Z,7.78
2023-08-13T00:30:27.907Z,10.52
2023-08-13T00:32:54.652Z,10.70
2023-08-13T00:35:21.327Z,10.98
2023-08-13T00:37:48.044Z,12.55
2023-08-13T00:40:14.823Z,13.48
2023-08-13T00:42:41.456Z,9.85
2023-08-13T00:45:08.485Z,10.60
2023-08-13T00:47:36.127Z,11.10
2023-08-13T00:50:04.968Z,11.05
2023-08-13T00:52:32.210Z,13.43
2023-08-13T00:54:59.230Z,8.48
2023-08-13T00:57:26.559Z,13.25
2023-08-13T00:59:54.060Z,10.30
2023-08-13T01:02:22.347Z,12.15
2023-08-13T01:04:49.384Z,8.68
2023-08-13T01:07:25.321Z,9.93
2023-08-13T01:10:14.734Z,10.82
2023-08-13T01:12:53.349Z,11.27
2023-08-13T01:15:40.729Z,9.98
2023-08-13T01:18:08.667Z,12.07
2023-08-13T01:20:40.826Z,10.13
2023-08-13T01:23:07.535Z,12.38
2023-08-13T01:25:34.899Z,11.90
2023-08-13T01:28:19.562Z,6.97
2023-08-13T01:30:50.317Z,10.73
2023-08-13T01:33:30.480Z,7.90
2023-08-13T01:36:02.519Z,11.07
2023-08-13T01:38:31.577Z,9.15
2023-08-13T01:41:00.866Z,11.57
2023-08-13T01:43:27.465Z,8.68
2023-08-13T01:45:54.215Z,12.68
2023-08-13T01:48:20.833Z,9.07
2023-08-13T01:50:47.400Z,13.70
2023-08-13T01:53:13.946Z,9.40
2023-08-13T01:55:40.541Z,9.60
2023-08-13T01:58:08.982Z,9.00
2023-08-13T02:00:35.570Z,14.38
2023-08-13T02:03:02.188Z,6.43
2023-08-13T02:05:28.923Z,10.65
2023-08-13T02:07:55.530Z,10.27
2023-08-13T02:10:22.097Z,9.25
2023-08-13T02:12:48.745Z,10.23
2023-08-13T02:15:15.438Z,15.88
2023-08-13T02:17:42.208Z,11.05
2023-08-13T02:20:12.398Z,16.98
2023-08-13T02:22:39.020Z,19.88
2023-08-13T02:25:06.113Z,18.20
2023-08-13T02:27:32.730Z,14.18
2023-08-13T02:29:59.353Z,7.72
2023-08-13T02:32:26.042Z,12.63
2023-08-13T02:34:52.633Z,12.95
2023-08-13T02:37:19.277Z,15.57
2023-08-13T02:39:45.848Z,12.23
2023-08-13T02:42:12.719Z,7.78
2023-08-13T02:44:39.641Z,13.02
2023-08-13T02:47:06.224Z,9.25
2023-08-13T02:49:32.798Z,9.93
2023-08-13T02:51:59.363Z,12.73
2023-08-13T02:54:25.983Z,8.40
2023-08-13T02:56:52.599Z,8.10
2023-08-13T02:59:19.233Z,8.20
2023-08-13T03:01:46.992Z,7.60
2023-08-13T03:04:14.121Z,10.95
2023-08-13T03:06:40.861Z,10.32
2023-08-13T03:09:07.526Z,13.23
2023-08-13T03:11:34.163Z,9.45
2023-08-13T03:14:00.722Z,12.05
2023-08-13T03:16:27.333Z,10.57
2023-08-13T03:18:53.966Z,6.55
2023-08-13T03:21:20.933Z,10.40
2023-08-13T03:23:47.739Z,8.32
2023-08-13T03:26:14.400Z,10.00
2023-08-13T03:28:41.044Z,9.25
2023-08-13T03:31:07.718Z,7.68
2023-08-13T03:33:34.317Z,9.32
2023-08-13T03:36:00.940Z,8.95
2023-08-13T03:38:27.518Z,10.48
2023-08-13T03:40:55.671Z,6.93
2023-08-13T03:43:22.638Z,12.30
2023-08-13T03:45:49.277Z,10.50
2023-08-13T03:48:17.021Z,10.30
2023-08-13T03:50:44.422Z,8.65
2023-08-13T03:53:11.696Z,9.95
2023-08-13T03:55:39.209Z,7.32
2023-08-13T03:58:05.992Z,10.20
2023-08-13T04:00:32.787Z,12.52
2023-08-13T04:03:03.345Z,12.32
2023-08-13T04:05:35.614Z,7.70
2023-08-13T04:08:02.586Z,8.05
2023-08-13T04:10:29.492Z,8.10
2023-08-13T04:13:01.377Z,7.80
2023-08-13T04:15:30.842Z,7.40
2023-08-13T04:17:57.562Z,8.13
2023-08-13T04:20:24.226Z,9.63
2023-08-13T04:22:50.809Z,9.15
2023-08-13T04:25:17.502Z,12.38
2023-08-13T04:27:44.098Z,8.07
2023-08-13T04:30:11.052Z,10.63
2023-08-13T04:32:41.728Z,8.90
2023-08-13T04:35:08.602Z,8.40
2023-08-13T04:37:35.207Z,8.70
2023-08-13T04:40:01.950Z,7.97
2023-08-13T04:42:29.660Z,10.43
2023-08-13T04:44:56.313Z,8.77
2023-08-13T04:47:22.905Z,7.07
2023-08-13T04:49:49.503Z,9.93
2023-08-13T04:52:16.329Z,11.10
2023-08-13T04:54:44.211Z,9.32
2023-08-13T04:57:10.920Z,9.32
2023-08-13T04:59:37.497Z,8.82
2023-08-13T05:02:04.608Z,6.45
2023-08-13T05:04:31.339Z,7.65
2023-08-13T05:06:58.342Z,9.50
2023-08-13T05:09:24.944Z,6.35
2023-08-13T05:11:51.622Z,10.75
2023-08-13T05:14:18.289Z,11.60
2023-08-13T05:16:45.043Z,9.15
2023-08-13T05:19:11.629Z,10.85
2023-08-13T05:21:38.842Z,10.57
2023-08-13T05:24:06.027Z,11.50
2023-08-13T05:26:32.590Z,8.10
2023-08-13T05:28:59.165Z,8.27
2023-08-13T05:31:25.842Z,9.07
2023-08-13T05:33:54.982Z,12.02
2023-08-13T05:36:21.658Z,9.90
2023-08-13T05:38:48.281Z,7.10
2023-08-13T05:41:14.890Z,7.63
2023-08-13T05:43:41.842Z,7.80
2023-08-13T05:46:09.052Z,7.68
2023-08-13T05:48:35.722Z,7.43
2023-08-13T05:51:02.361Z,8.77
2023-08-13T05:53:29.026Z,4.97
2023-08-13T05:56:00.564Z,4.60
2023-08-13T05:58:27.223Z,12.52
2023-08-13T06:00:54.349Z,10.40
2023-08-13T06:03:21.195Z,9.20
2023-08-13T06:05:48.725Z,6.57
2023-08-13T06:08:15.345Z,13.63
2023-08-13T06:10:41.976Z,7.88
2023-08-13T06:13:08.634Z,7.53
2023-08-13T06:15:35.243Z,9.75
2023-08-13T06:18:01.944Z,10.15
2023-08-13T06:20:29.288Z,8.02
2023-08-13T06:22:55.940Z,9.73
2023-08-13T06:25:22.653Z,15.27
2023-08-13T06:27:49.252Z,8.68
2023-08-13T06:30:15.929Z,11.40
2023-08-13T06:32:42.745Z,9.18
2023-08-13T06:35:09.790Z,16.67
2023-08-13T06:37:44.075Z,7.18
2023-08-13T06:40:13.928Z,12.77
2023-08-13T06:42:40.489Z,11.73
2023-08-13T06:45:07.756Z,8.30
2023-08-13T06:47:34.374Z,11.00
2023-08-13T06:50:00.972Z,6.90
2023-08-13T06:52:27.523Z,5.43
2023-08-13T06:54:54.135Z,7.90
2023-08-13T06:57:20.881Z,6.53
2023-08-13T06:59:47.524Z,7.15
2023-08-13T07:02:14.344Z,8.52
2023-08-13T07:04:41.157Z,7.60
2023-08-13T07:07:07.770Z,12.52
2023-08-13T07:09:35.153Z,7.90
2023-08-13T07:12:02.120Z,6.20
2023-08-13T07:14:28.753Z,11.25
2023-08-13T07:16:55.393Z,8.95
2023-08-13T07:19:22.240Z,9.65
2023-08-13T07:21:48.863Z,5.38
2023-08-13T07:24:15.486Z,8.32
2023-08-13T07:26:42.128Z,12.32
2023-08-13T07:29:08.946Z,7.35
2023-08-13T07:31:38.604Z,10.32
2023-08-13T07:34:05.872Z,6.80
2023-08-13T07:36:32.764Z,9.48
2023-08-13T07:38:59.449Z,8.93
2023-08-13T07:41:26.066Z,7.40
2023-08-13T07:43:52.770Z,10.05
2023-08-13T07:46:19.357Z,8.43
2023-08-13T07:48:46.676Z,9.95
2023-08-13T07:51:13.489Z,7.43
2023-08-13T07:53:40.094Z,10.30
2023-08-13T07:56:06.718Z,6.25
2023-08-13T07:58:33.394Z,10.68
2023-08-13T08:01:00.070Z,6.32
2023-08-13T08:03:26.747Z,11.13
2023-08-13T08:05:54.202Z,8.70
2023-08-13T08:08:21.003Z,10.68
2023-08-13T08:10:47.607Z,6.65
2023-08-13T08:13:14.290Z,9.18
2023-08-13T08:15:41.053Z,8.63
2023-08-13T08:18:07.761Z,6.97
2023-08-13T08:20:34.486Z,7.97
2023-08-13T08:23:01.408Z,9.40
2023-08-13T08:25:29.006Z,12.18
2023-08-13T08:27:55.698Z,9.18
2023-08-13T08:30:22.433Z,11.02
2023-08-13T08:32:49.554Z,7.78
2023-08-13T08:35:16.362Z,8.60
2023-08-13T08:37:42.942Z,6.35
2023-08-13T08:40:10.009Z,7.70
2023-08-13T08:42:37.676Z,9.75
2023-08-13T08:45:06.301Z,8.27
2023-08-13T08:47:35.025Z,5.97
2023-08-13T08:50:05.361Z,5.45
2023-08-13T08:52:35.575Z,6.38
2023-08-13T08:55:04.360Z,4.63
2023-08-13T08:57:31.055Z,6.45
2023-08-13T08:59:57.684Z,6.90
2023-08-13T09:02:24.362Z,9.52
2023-08-13T09:04:51.832Z,7.80
2023-08-13T09:07:18.500Z,8.43
2023-08-13T09:09:49.957Z,5.07
2023-08-13T09:12:16.986Z,5.32
2023-08-13T09:14:43.779Z,6.97
2023-08-13T09:17:13.630Z,5.43
2023-08-13T09:19:40.677Z,6.57
2023-08-13T09:22:08.282Z,8.63
2023-08-13T09:24:39.412Z,6.15
2023-08-13T09:27:07.550Z,10.05
2023-08-13T09:29:34.686Z,10.25
2023-08-13T09:32:02.790Z,6.38
2023-08-13T09:34:31.289Z,6.53
2023-08-13T09:36:59.001Z,3.15
2023-08-13T09:39:27.499Z,7.13
2023-08-13T09:41:54.842Z,4.38
2023-08-13T09:44:25.424Z,8.20
2023-08-13T09:46:59.242Z,3.78
2023-08-13T09:49:30.140Z,6.53
2023-08-13T09:52:02.942Z,3.92
2023-08-13T09:54:35.278Z,5.78
2023-08-13T09:57:08.667Z,3.83
2023-08-13T09:59:37.290Z,4.57
2023-08-13T10:02:12.851Z,4.97
2023-08-13T10:04:40.000Z,4.30
2023-08-13T10:07:07.607Z,2.50
2023-08-13T10:09:35.478Z,9.00
2023-08-13T10:12:03.140Z,7.68
2023-08-13T10:14:31.219Z,4.53
2023-08-13T10:17:02.355Z,3.40
2023-08-13T10:19:35.461Z,4.10
2023-08-13T10:22:02.698Z,4.63
2023-08-13T10:24:30.683Z,5.13
2023-08-13T10:27:00.180Z,3.10
2023-08-13T10:29:41.645Z,4.28
2023-08-13T10:32:16.671Z,1.88
2023-08-13T10:34:51.643Z,5.25
2023-08-13T10:37:23.505Z,3.13
2023-08-13T10:39:56.156Z,2.88
2023-08-13T10:42:28.577Z,5.45
2023-08-13T10:45:05.954Z,2.53
2023-08-13T10:47:51.421Z,3.97
2023-08-13T10:50:33.922Z,5.72
2023-08-13T10:53:06.688Z,5.40
2023-08-13T10:55:39.333Z,6.90
2023-08-13T10:58:06.902Z,2.13
2023-08-13T11:00:43.840Z,6.18
2023-08-13T11:03:24.566Z,3.92
2023-08-13T11:05:52.737Z,5.53
2023-08-13T11:08:30.738Z,3.15
2023-08-13T11:11:08.200Z,3.97
2023-08-13T11:13:34.893Z,4.53
2023-08-13T11:16:01.508Z,3.05
2023-08-13T11:18:28.090Z,5.55
2023-08-13T11:20:55.686Z,5.28
2023-08-13T11:23:23.202Z,6.55
2023-08-13T11:25:50.581Z,6.43
2023-08-13T11:28:24.781Z,4.38
2023-08-13T11:30:53.108Z,4.28
2023-08-13T11:33:20.558Z,3.40
2023-08-13T11:35:47.994Z,6.40
2023-08-13T11:38:16.731Z,4.15
2023-08-13T11:40:46.316Z,6.18
2023-08-13T11:43:14.303Z,4.10
2023-08-13T11:45:41.362Z,4.00
2023-08-13T11:48:15.499Z,3.65
2023-08-13T11:50:47.978Z,3.78
2023-08-13T11:53:16.497Z,4.47
2023-08-13T11:55:46.132Z,5.40
2023-08-13T11:58:17.898Z,3.78
2023-08-13T12:00:45.376Z,3.47
2023-08-13T12:03:13.775Z,3.10
2023-08-13T12:05:40.867Z,2.10
2023-08-13T12:08:10.833Z,2.60
2023-08-13T12:10:39.826Z,4.13
2023-08-13T12:13:07.052Z,6.35
2023-08-13T12:15:34.083Z,4.43
2023-08-13T12:18:01.776Z,3.53
2023-08-13T12:20:29.275Z,4.25
2023-08-13T12:22:56.202Z,3.85
2023-08-13T12:25:22.990Z,3.17
2023-08-13T12:27:53.002Z,2.97
2023-08-13T12:30:20.515Z,4.93
2023-08-13T12:32:47.264Z,5.00
2023-08-13T12:35:14.281Z,6.78
2023-08-13T12:37:41.473Z,3.50
2023-08-13T12:40:11.757Z,3.63
2023-08-13T12:42:39.265Z,3.08
2023-08-13T12:45:07.632Z,7.18
2023-08-13T12:47:35.759Z,5.60
2023-08-13T12:50:05.833Z,3.47
2023-08-13T12:52:32.468Z,3.72
2023-08-13T12:54:59.091Z,2.47
2023-08-13T12:57:25.701Z,4.40
2023-08-13T12:59:52.672Z,4.47
2023-08-13T13:02:19.874Z,3.42
2023-08-13T13:04:46.713Z,3.60
2023-08-13T13:07:13.350Z,3.22
2023-08-13T13:09:39.934Z,4.68
